Wtr Mill, New York
Current Conditions -  °F | °C
As of 1:34 PM on Wednesday 26 Nov 2014 (Local Time) from KFOK Reporting Station
Light Rain Light Rain  
Wind Chill: 31°   Ceiling: 700
Heat Index: 40°   Visibility: 3mi
Dew Point: 37°   Wind: 18mph
Humidity: 89%   Direction: 10°N
Pressure: 29.95"   Gusts: 25mph
Location:  40.9217°N, 72.3434°W
Report Text: KFOK 261834Z 01016G22KT 3SM -RA BR BKN007 BKN012 OVC034 04/03 A2995 RMK AO2 P0011 T00440028
Loading
Personal Weather Stations






























Interactive Weather Map New forecast layout! Learn more

10-Day Weather Forecast

Advertisements
Track Severe Weather on mobile